Porto Franco, Brazil
Current Conditions -  °F | °C
As of 4:15 AM on Tuesday 21 Oct 2014 (Local Time) from SBIZ Reporting Station
Scattered Clouds Scattered Clouds  
Wind Chill: 81°   Ceiling: Unl
Heat Index: 86°   Visibility: 5mi
Dew Point: 75°   Wind: 2mph
Humidity: 84%   Direction: 10°N
Pressure: 29.83"   Gusts: NA
Location:  6.34°S, 47.4°W
Report Text: SBIZ 210715Z 01002KT 8000 FEW007 SCT015 27/24 Q1010
Loading
Personal Weather Stations






























Interactive Weather Map
Tropical Storm Tracking
New forecast layout! Learn more

10-Day Weather Forecast

Advertisements
Track Severe Weather on mobile